Terminal Aerodrome Forecast
Issued by NWS Corpus Christi, TX

Home | Current Version | Previous Version | Text Only | Print | Product List | Glossary On
Versions: 1 2 3 4 5 6 7 8 9 10 11 12 13 14 15 16 17 18 19 20 21 22 23
167
FTUS44 KCRP 241122
TAFVCT
TAF
KVCT 241122Z 2412/2512 14008KT 6SM BR SCT014 OVC024
      TEMPO 2412/2414 4SM BR BKN014 OVC024
     FM241400 15010KT P6SM BKN015 OVC030
     FM241800 14012KT P6SM BKN025 OVC050
     FM242100 12014G20KT P6SM SCT025 BKN050
     FM250100 13010KT P6SM SCT020 BKN250
     FM250500 13007KT P6SM BKN015
     FM250900 12005KT 4SM BR BKN007 OVC015=

USA.gov is the U.S. government's official web portal to all federal, state and local government web resources and services.